Yukon, WV

9:37 AM EDT on August 21, 2014 (GMT -0400)
Tazewell County | Change Station
CLOSE
Current Station
Airport
Location: Richlands,
Elevation: 2651 ft
Nearby Weather Stations

Elev 2651 ft 37.06 °N, 81.80 °W | Updated 22 minutes ago

Overcast
Overcast
68 °F
Feels Like 68 °F
N
0
Wind Variable Wind from North

Today
High -- | Low -- °F
--% Chance of Precip.
Yesterday
High -- | Low -- °F
Precip. -- in
6:48 AM 8:10 PM
Waning Crescent, 14% visible
Pressure 30.24 in
Visibility 0.8 miles
Clouds Overcast 200 ft
Dew Point 67 °F
Humidity 96%
Rainfall 0.00 in
Snow Depth Not available.
UV 1 out of 12
Pollen 9.30 out of 12
Air Quality Not available.
Flu Activity Not available.
METAR KJFZ 211315Z AUTO 00000KT 3/4SM BR OVC002 20/19 A3024 RMK AO2 LTG DSNT NW T01990192

More Conditions Fewer Conditions

Pressure 30.24 in
Visibility 0.8 miles
Clouds Overcast 200 ft
Dew Point 67 °F
Humidity 96%
Rainfall 0.00 in
Snow Depth Not available.
UV 1 out of 12
Pollen 9.30 out of 12
Air Quality Not available.
Flu Activity Not available.
METAR KJFZ 211315Z AUTO 00000KT 3/4SM BR OVC002 20/19 A3024 RMK AO2 LTG DSNT NW T01990192

More Conditions Fewer Conditions

10-Day Weather Forecast

Almanac

Astronomy

Aug. 21, 2014 Rise Set
Actual Time 6:48 AM EDT 8:10 PM EDT
Civil Twilight 6:20 AM EDT 8:38 PM EDT
Nautical Twilight 5:47 AM EDT 9:10 PM EDT
Astronomical Twilight 5:13 AM EDT 9:45 PM EDT
Moon 3:19 AM EDT 5:37 PM EDT
Length of Visible Light 14h 17m
Length of Day
13h 22m
Tomorrow will be 2m 11s shorter.
Waning Crescent, 14% of the Moon is Illuminated
Today
Waning Crescent
Aug 25
New
Sep 2
First Quarter
Sep 8
Full
Sep 15
Last Quarter

Today's Extremes

State Highs State Lows

Community

WunderPhotos

Upload Photos

1,745,918 photos uploaded!

WunderBlogs® & News

Nearby

Snow Depth

Station Depth Elevation
No new snow has been reported.

Earthquake Activity

City Distance Mag. Time & Date
No recent earthquake activity has been reported nearby.
Minimum magnitude displayed is 2.5.

Coastal Water Temperatures

Place Temperature
No Stations Reporting

Nearby Weather Stations